createdAt,value
2018-06-14T19:38:27.624Z,24.5
2018-06-14T19:39:17.452Z,24.5
2018-06-14T19:40:07.975Z,24.5
2018-06-14T19:40:56.992Z,24.5
2018-06-14T19:41:47.288Z,24.5
2018-06-14T19:42:37.655Z,24.5
2018-06-14T19:43:27.789Z,24.5
2018-06-14T19:44:17.796Z,24.5
2018-06-14T19:45:07.859Z,24.5
2018-06-14T19:45:57.414Z,24.5
2018-06-14T19:46:47.817Z,24.5
2018-06-14T19:47:37.955Z,24.5
2018-06-14T19:48:27.560Z,24.5
2018-06-14T19:49:18.440Z,24.5
2018-06-14T19:50:07.722Z,24.5
2018-06-14T19:50:58.368Z,24.5
2018-06-14T19:51:48.337Z,24.5
2018-06-14T19:52:38.424Z,24.5
2018-06-14T19:53:28.183Z,24.5
2018-06-14T19:54:18.894Z,24.5
2018-06-14T19:55:08.953Z,24.6
2018-06-14T19:55:58.432Z,24.6
2018-06-14T19:56:49.058Z,24.5
2018-06-14T19:57:37.722Z,24.5
2018-06-14T19:58:28.353Z,24.5
2018-06-14T19:59:19.270Z,24.6
2018-06-14T20:00:08.434Z,24.5
2018-06-14T20:00:59.226Z,24.6
2018-06-14T20:01:49.050Z,24.6
2018-06-14T20:02:39.094Z,24.5
2018-06-14T20:03:28.688Z,24.5
2018-06-14T20:04:18.949Z,24.5
2018-06-14T20:05:09.046Z,24.5
2018-06-14T20:05:59.094Z,24.5
2018-06-14T20:06:49.724Z,24.5
2018-06-14T20:07:38.390Z,24.5
2018-06-14T20:08:29.000Z,24.5
2018-06-14T20:09:19.647Z,24.5
2018-06-14T20:10:08.880Z,24.5
2018-06-14T20:10:59.466Z,24.5
2018-06-14T20:11:49.853Z,24.5
2018-06-14T20:12:38.748Z,24.5
2018-06-14T20:13:29.406Z,24.5
2018-06-14T20:14:19.758Z,24.4
2018-06-14T20:15:10.198Z,24.4
2018-06-14T20:16:00.160Z,24.5
2018-06-14T20:16:49.408Z,24.4
2018-06-14T20:17:40.235Z,24.5
2018-06-14T20:18:30.690Z,24.4
2018-06-14T20:19:19.891Z,24.4
2018-06-14T20:20:10.476Z,24.4
2018-06-14T20:21:00.482Z,24.4
2018-06-14T20:21:49.273Z,24.4
2018-06-14T20:22:40.385Z,24.4
2018-06-14T20:23:30.724Z,24.4
2018-06-14T20:24:20.786Z,24.4
2018-06-14T20:25:10.579Z,24.4
2018-06-14T20:26:00.990Z,24.4
2018-06-14T20:26:51.008Z,24.4
2018-06-14T20:27:41.327Z,24.4
2018-06-14T20:28:30.285Z,24.4
2018-06-14T20:29:20.896Z,24.4
2018-06-14T20:30:10.488Z,24.4
2018-06-14T20:31:01.070Z,24.4
2018-06-14T20:31:50.827Z,24.4
2018-06-14T20:32:41.133Z,24.4
2018-06-14T20:33:30.660Z,24.4
2018-06-14T20:34:21.338Z,24.4
2018-06-14T20:35:11.106Z,24.4
2018-06-14T20:36:00.863Z,24.4
2018-06-14T20:36:50.921Z,24.4
2018-06-14T20:37:41.896Z,24.3
2018-06-14T20:38:31.945Z,24.3
2018-06-14T20:39:21.378Z,24.3
2018-06-14T20:40:11.441Z,24.4
2018-06-14T20:41:01.595Z,24.3
2018-06-14T20:41:53.460Z,24.3
2018-06-14T20:42:41.707Z,24.3
2018-06-14T20:43:31.761Z,24.3
2018-06-14T20:44:22.353Z,24.3
2018-06-14T20:45:12.698Z,24.3
2018-06-14T20:46:02.223Z,24.3
2018-06-14T20:46:51.937Z,24.3
2018-06-14T20:47:42.646Z,24.3
2018-06-14T20:48:32.412Z,24.3
2018-06-14T20:49:22.778Z,24.3
2018-06-14T20:50:12.300Z,24.3
2018-06-14T20:51:02.908Z,24.3
2018-06-14T20:51:52.965Z,24.3
2018-06-14T20:52:43.045Z,24.2
2018-06-14T20:53:33.393Z,24.3
2018-06-14T20:54:23.412Z,24.3
2018-06-14T20:55:12.923Z,24.3
2018-06-14T20:56:02.792Z,24.2
2018-06-14T20:56:53.096Z,24.2
2018-06-14T20:57:43.520Z,24.2
2018-06-14T20:58:33.764Z,24.2
2018-06-14T20:59:23.516Z,24.2
2018-06-14T21:00:13.894Z,24.2
2018-06-14T21:01:03.389Z,24.2
2018-06-14T21:01:53.382Z,24.1
2018-06-14T21:02:43.473Z,24.1
2018-06-14T21:03:33.675Z,24.2
2018-06-14T21:04:23.418Z,24.1
2018-06-14T21:05:14.159Z,24.2
2018-06-14T21:06:03.751Z,24.1
2018-06-14T21:06:53.262Z,24.1
2018-06-14T21:07:43.576Z,24.1
2018-06-14T21:08:34.112Z,24.1
2018-06-14T21:09:23.836Z,24.1
2018-06-14T21:10:13.905Z,24.1
2018-06-14T21:11:03.374Z,24.1
2018-06-14T21:11:54.283Z,24.1
2018-06-14T21:12:44.058Z,24.1
2018-06-14T21:13:34.126Z,24.1
2018-06-14T21:14:24.470Z,24.1
2018-06-14T21:15:14.041Z,24.1
2018-06-14T21:16:02.980Z,24.1
2018-06-14T21:16:53.620Z,24.1
2018-06-14T21:17:44.215Z,24.1
2018-06-14T21:18:34.032Z,24
2018-06-14T21:19:24.782Z,24
2018-06-14T21:20:14.903Z,24.1
2018-06-14T21:21:05.429Z,24
2018-06-14T21:21:55.236Z,24
2018-06-14T21:22:45.346Z,24
2018-06-14T21:23:35.427Z,24
2018-06-14T21:24:25.755Z,24
2018-06-14T21:25:14.959Z,24
2018-06-14T21:26:05.563Z,23.9
2018-06-14T21:26:55.930Z,23.9
2018-06-14T21:27:45.528Z,23.9
2018-06-14T21:28:35.817Z,23.9
2018-06-14T21:29:25.320Z,23.9
2018-06-14T21:30:15.914Z,23.9
2018-06-14T21:31:06.291Z,23.9
2018-06-14T21:31:55.541Z,23.9
2018-06-14T21:32:45.612Z,23.9
2018-06-14T21:33:36.467Z,23.9
2018-06-14T21:34:26.501Z,23.9
2018-06-14T21:35:16.027Z,23.9
2018-06-14T21:36:05.814Z,23.9
2018-06-14T21:36:56.423Z,23.9
2018-06-14T21:37:46.732Z,23.9
2018-06-14T21:38:36.292Z,23.9
2018-06-14T21:39:26.326Z,23.9
2018-06-14T21:40:16.431Z,23.8
2018-06-14T21:41:06.753Z,23.8
2018-06-14T21:41:56.523Z,23.8
2018-06-14T21:42:45.850Z,23.8
2018-06-14T21:43:37.235Z,23.8
2018-06-14T21:44:26.198Z,23.8
2018-06-14T21:45:17.383Z,23.8
2018-06-14T21:46:07.388Z,23.8
2018-06-14T21:46:56.737Z,23.8
2018-06-14T21:47:47.080Z,23.8
2018-06-14T21:48:37.028Z,23.8
2018-06-14T21:49:27.411Z,23.8
2018-06-14T21:50:17.484Z,23.8
2018-06-14T21:51:06.440Z,23.8
2018-06-14T21:51:57.038Z,23.8
2018-06-14T21:52:47.118Z,23.8
2018-06-14T21:53:38.005Z,23.7
2018-06-14T21:54:27.775Z,23.8
2018-06-14T21:55:17.554Z,23.7
2018-06-14T21:56:07.632Z,23.7
2018-06-14T21:56:57.469Z,23.7
2018-06-14T21:57:47.783Z,23.7
2018-06-14T21:58:38.112Z,23.7
2018-06-14T21:59:28.262Z,23.7
2018-06-14T22:00:18.282Z,23.6
2018-06-14T22:01:08.592Z,23.7
2018-06-14T22:01:58.064Z,23.6
2018-06-14T22:02:48.188Z,23.6
2018-06-14T22:03:39.061Z,23.6
2018-06-14T22:04:28.650Z,23.6
2018-06-14T22:05:18.613Z,23.6
2018-06-14T22:06:08.757Z,23.6
2018-06-14T22:06:58.750Z,23.6
2018-06-14T22:07:49.113Z,23.6
2018-06-14T22:08:38.836Z,23.7
2018-06-14T22:09:28.986Z,23.6
2018-06-14T22:10:18.735Z,23.6
2018-06-14T22:11:08.798Z,23.7
2018-06-14T22:11:59.181Z,23.7
2018-06-14T22:12:49.467Z,23.7
2018-06-14T22:13:39.551Z,23.7
2018-06-14T22:14:29.337Z,23.7
2018-06-14T22:15:19.441Z,23.7
2018-06-14T22:16:09.320Z,23.7
2018-06-14T22:16:58.254Z,23.7
2018-06-14T22:17:48.301Z,23.7
2018-06-14T22:18:39.465Z,23.7
2018-06-14T22:19:28.787Z,23.7
2018-06-14T22:20:19.322Z,23.7
2018-06-14T22:21:08.931Z,23.7
2018-06-14T22:21:58.445Z,23.7
2018-06-14T22:22:48.561Z,23.8
2018-06-14T22:23:39.364Z,23.8
2018-06-14T22:24:29.453Z,23.8
2018-06-14T22:25:19.720Z,23.8
2018-06-14T22:26:09.815Z,23.7
2018-06-14T22:26:59.569Z,23.8
2018-06-14T22:27:50.154Z,23.8
2018-06-14T22:28:39.722Z,23.8
2018-06-14T22:29:30.002Z,23.8
2018-06-14T22:30:20.581Z,23.8
2018-06-14T22:31:10.454Z,23.8
2018-06-14T22:32:00.530Z,23.7
2018-06-14T22:32:51.092Z,23.8
2018-06-14T22:33:41.162Z,23.8
2018-06-14T22:34:30.920Z,23.8
2018-06-14T22:35:20.480Z,23.8
2018-06-14T22:36:11.092Z,23.8
2018-06-14T22:37:00.110Z,23.8
2018-06-14T22:37:51.161Z,23.8
2018-06-14T22:38:40.088Z,23.8
2018-06-14T22:39:31.307Z,23.8
2018-06-14T22:40:20.842Z,23.8
2018-06-14T22:41:10.292Z,23.8
2018-06-14T22:42:01.021Z,23.8
2018-06-14T22:42:50.729Z,23.8
2018-06-14T22:43:41.054Z,23.8
2018-06-14T22:44:31.444Z,23.8
2018-06-14T22:45:20.641Z,23.8
2018-06-14T22:46:11.816Z,23.8
2018-06-14T22:47:02.171Z,23.8
2018-06-14T22:47:51.378Z,23.8
2018-06-14T22:48:41.156Z,23.8
2018-06-14T22:49:31.541Z,23.8
2018-06-14T22:50:21.356Z,23.8
2018-06-14T22:51:12.236Z,23.8
2018-06-14T22:52:02.369Z,23.8
2018-06-14T22:52:52.391Z,23.8
2018-06-14T22:53:41.625Z,23.8
2018-06-14T22:54:32.207Z,23.8
2018-06-14T22:55:21.763Z,23.8
2018-06-14T22:56:12.878Z,23.8
2018-06-14T22:57:02.100Z,23.8
2018-06-14T22:57:52.755Z,23.8
2018-06-14T22:58:43.113Z,23.8
2018-06-14T22:59:33.087Z,23.8
2018-06-14T23:00:23.152Z,23.8
2018-06-14T23:01:12.947Z,23.8
2018-06-14T23:02:02.748Z,23.8
2018-06-14T23:02:53.397Z,23.9
2018-06-14T23:03:42.886Z,23.9
2018-06-14T23:04:32.682Z,23.8
2018-06-14T23:05:22.748Z,23.9
2018-06-14T23:06:12.954Z,23.9
2018-06-14T23:07:03.455Z,23.9
2018-06-14T23:07:52.877Z,23.9
2018-06-14T23:08:42.751Z,23.9
2018-06-14T23:09:33.344Z,23.9
2018-06-14T23:10:23.375Z,23.9
2018-06-14T23:11:14.739Z,23.9
2018-06-14T23:12:03.066Z,23.9
2018-06-14T23:12:53.591Z,23.9
2018-06-14T23:13:43.979Z,23.9
2018-06-14T23:14:32.883Z,23.9
2018-06-14T23:15:24.414Z,23.9
2018-06-14T23:16:13.275Z,23.9
2018-06-14T23:17:03.651Z,23.9
2018-06-14T23:17:53.727Z,23.9
2018-06-14T23:18:44.405Z,23.9
2018-06-14T23:19:34.718Z,23.9
2018-06-14T23:20:24.172Z,23.9
2018-06-14T23:21:14.271Z,23.9
2018-06-14T23:22:04.593Z,23.9
2018-06-14T23:22:54.440Z,23.9
2018-06-14T23:23:44.700Z,23.9
2018-06-14T23:24:34.539Z,23.9
2018-06-14T23:25:24.255Z,23.9
2018-06-14T23:26:13.802Z,23.9
2018-06-14T23:27:04.462Z,23.9
2018-06-14T23:27:55.046Z,23.9
2018-06-14T23:28:44.588Z,23.9
2018-06-14T23:29:34.053Z,23.9
2018-06-14T23:30:25.229Z,23.9
2018-06-14T23:31:15.307Z,23.9
2018-06-14T23:32:05.390Z,23.9
2018-06-14T23:32:54.950Z,23.9
2018-06-14T23:33:45.514Z,23.9
2018-06-14T23:34:35.821Z,23.9
2018-06-14T23:35:25.314Z,23.9
2018-06-14T23:36:15.993Z,23.9
2018-06-14T23:37:05.472Z,23.9
2018-06-14T23:37:54.443Z,23.9
2018-06-14T23:38:45.595Z,23.9
2018-06-14T23:39:34.859Z,23.9
2018-06-14T23:40:25.433Z,23.9
2018-06-14T23:41:14.952Z,23.9
2018-06-14T23:42:05.048Z,23.9
2018-06-14T23:42:56.206Z,23.9
2018-06-14T23:43:46.050Z,23.9
2018-06-14T23:44:36.040Z,23.9
2018-06-14T23:45:26.139Z,24
2018-06-14T23:46:15.923Z,24
2018-06-14T23:47:06.544Z,24
2018-06-14T23:47:56.293Z,23.9
2018-06-14T23:48:46.336Z,24
2018-06-14T23:49:36.783Z,24
2018-06-14T23:50:26.810Z,23.9
2018-06-14T23:51:16.605Z,24
2018-06-14T23:52:06.633Z,23.9
2018-06-14T23:52:56.670Z,24
2018-06-14T23:53:46.808Z,24
2018-06-14T23:54:37.409Z,24
2018-06-14T23:55:26.934Z,24
2018-06-14T23:56:16.935Z,24
2018-06-14T23:57:06.978Z,24
2018-06-14T23:57:57.086Z,24
2018-06-14T23:58:47.234Z,24
2018-06-14T23:59:37.511Z,24
